createdAt,value
2019-02-09T00:01:27.137Z,100.00
2019-02-09T00:03:57.298Z,100.00
2019-02-09T00:06:27.058Z,100.00
2019-02-09T00:08:56.720Z,100.00
2019-02-09T00:11:26.294Z,100.00
2019-02-09T00:13:55.970Z,100.00
2019-02-09T00:16:25.672Z,100.00
2019-02-09T00:18:55.269Z,100.00
2019-02-09T00:21:24.956Z,100.00
2019-02-09T00:23:54.635Z,100.00
2019-02-09T00:26:24.359Z,100.00
2019-02-09T00:28:54.071Z,100.00
2019-02-09T00:31:23.726Z,100.00
2019-02-09T00:33:53.582Z,100.00
2019-02-09T00:36:23.272Z,100.00
2019-02-09T00:38:52.941Z,100.00
2019-02-09T00:41:22.628Z,100.00
2019-02-09T00:43:52.295Z,100.00
2019-02-09T00:46:22.023Z,100.00
2019-02-09T00:48:51.714Z,100.00
2019-02-09T00:51:21.359Z,100.00
2019-02-09T00:53:51.000Z,100.00
2019-02-09T00:56:20.690Z,100.00
2019-02-09T00:58:50.536Z,100.00
2019-02-09T01:01:20.126Z,100.00
2019-02-09T01:03:49.767Z,97.97
2019-02-09T01:06:19.536Z,98.38
2019-02-09T01:08:49.225Z,100.00
2019-02-09T01:11:18.943Z,100.00
2019-02-09T01:13:48.590Z,100.00
2019-02-09T01:16:18.203Z,100.00
2019-02-09T01:18:47.868Z,100.00
2019-02-09T01:21:17.537Z,100.00
2019-02-09T01:23:47.205Z,100.00
2019-02-09T01:26:16.892Z,100.00
2019-02-09T01:28:46.498Z,100.00
2019-02-09T01:31:16.160Z,100.00
2019-02-09T01:33:45.886Z,100.00
2019-02-09T01:36:15.584Z,100.00
2019-02-09T01:38:45.252Z,100.00
2019-02-09T01:41:14.926Z,100.00
2019-02-09T01:43:44.565Z,100.00
2019-02-09T01:46:14.254Z,100.00
2019-02-09T01:48:43.941Z,100.00
2019-02-09T01:51:13.526Z,100.00
2019-02-09T01:53:43.208Z,96.58
2019-02-09T01:56:12.802Z,100.00
2019-02-09T01:58:42.401Z,100.00
2019-02-09T02:01:12.269Z,100.00
2019-02-09T02:03:41.933Z,100.00
2019-02-09T02:06:11.977Z,100.00
2019-02-09T02:08:41.743Z,100.00
2019-02-09T02:11:11.467Z,100.00
2019-02-09T02:13:41.058Z,100.00
2019-02-09T02:16:10.906Z,100.00
2019-02-09T02:18:40.526Z,100.00
2019-02-09T02:21:10.118Z,100.00
2019-02-09T02:23:39.839Z,100.00
2019-02-09T02:26:09.551Z,97.05
2019-02-09T02:28:39.173Z,100.00
2019-02-09T02:31:08.864Z,100.00
2019-02-09T02:33:38.480Z,100.00
2019-02-09T02:36:08.085Z,100.00
2019-02-09T02:38:37.789Z,100.00
2019-02-09T02:41:07.417Z,100.00
2019-02-09T02:43:37.044Z,100.00
2019-02-09T02:46:06.700Z,100.00
2019-02-09T02:48:36.386Z,100.00
2019-02-09T02:51:06.498Z,100.00
2019-02-09T02:53:36.199Z,100.00
2019-02-09T02:56:06.233Z,100.00
2019-02-09T02:58:35.858Z,100.00
2019-02-09T03:01:05.937Z,100.00
2019-02-09T03:03:35.513Z,100.00
2019-02-09T03:06:05.313Z,100.00
2019-02-09T03:08:35.004Z,100.00
2019-02-09T03:11:04.863Z,100.00
2019-02-09T03:13:34.474Z,100.00
2019-02-09T03:16:04.105Z,100.00
2019-02-09T03:18:33.736Z,100.00
2019-02-09T03:21:03.374Z,100.00
2019-02-09T03:23:33.044Z,100.00
2019-02-09T03:26:02.713Z,100.00
2019-02-09T03:28:32.603Z,100.00
2019-02-09T03:31:02.268Z,100.00
2019-02-09T03:33:31.907Z,100.00
2019-02-09T03:36:01.537Z,100.00
2019-02-09T03:38:31.201Z,100.00
2019-02-09T03:41:00.895Z,100.00
2019-02-09T03:43:30.474Z,100.00
2019-02-09T03:46:00.145Z,100.00
2019-02-09T03:48:29.827Z,100.00
2019-02-09T03:50:59.539Z,100.00
2019-02-09T03:53:29.211Z,100.00
2019-02-09T03:55:58.828Z,100.00
2019-02-09T03:58:28.451Z,100.00
2019-02-09T04:00:58.279Z,100.00
2019-02-09T04:03:28.092Z,100.00
2019-02-09T04:05:57.730Z,100.00
2019-02-09T04:08:27.434Z,100.00
2019-02-09T04:10:57.071Z,100.00
2019-02-09T04:13:26.724Z,100.00
2019-02-09T04:15:56.434Z,100.00
2019-02-09T04:18:26.169Z,100.00
2019-02-09T04:20:55.937Z,100.00
2019-02-09T04:23:25.613Z,100.00
2019-02-09T04:25:55.322Z,100.00
2019-02-09T04:28:24.979Z,100.00
2019-02-09T04:30:54.639Z,100.00
2019-02-09T04:33:24.299Z,100.00
2019-02-09T04:35:53.957Z,100.00
2019-02-09T04:38:23.597Z,100.00
2019-02-09T04:40:53.231Z,100.00
2019-02-09T04:43:22.899Z,100.00
2019-02-09T04:45:52.592Z,100.00
2019-02-09T04:48:22.229Z,100.00
2019-02-09T04:50:51.874Z,100.00
2019-02-09T04:53:21.549Z,100.00
2019-02-09T04:55:51.215Z,100.00
2019-02-09T04:58:20.807Z,97.42
2019-02-09T05:00:50.562Z,92.06
2019-02-09T05:03:20.170Z,87.88
2019-02-09T05:05:49.764Z,84.37
2019-02-09T05:08:19.467Z,81.02
2019-02-09T05:10:49.076Z,85.78
2019-02-09T05:13:18.693Z,89.11
2019-02-09T05:15:48.327Z,83.32
2019-02-09T05:18:17.942Z,84.34
2019-02-09T05:20:47.509Z,90.21
2019-02-09T05:23:17.204Z,97.57
2019-02-09T05:25:46.850Z,100.00
2019-02-09T05:28:16.485Z,100.00
2019-02-09T05:30:46.139Z,99.22
2019-02-09T05:33:15.766Z,100.00
2019-02-09T05:35:45.390Z,100.00
2019-02-09T05:38:15.052Z,95.60
2019-02-09T05:40:44.813Z,94.48
2019-02-09T05:43:14.449Z,94.73
2019-02-09T05:45:44.094Z,83.92
2019-02-09T05:48:13.724Z,89.53
2019-02-09T05:50:43.448Z,86.44
2019-02-09T05:53:13.115Z,88.50
2019-02-09T05:55:42.772Z,86.08
2019-02-09T05:58:12.405Z,80.48
2019-02-09T06:00:44.180Z,78.80
2019-02-09T06:03:13.770Z,82.00
2019-02-09T06:05:43.372Z,80.92
2019-02-09T06:08:13.015Z,87.78
2019-02-09T06:10:42.632Z,89.39
2019-02-09T06:13:12.236Z,98.60
2019-02-09T06:15:41.859Z,94.75
2019-02-09T06:18:11.479Z,95.31
2019-02-09T06:20:41.089Z,98.38
2019-02-09T06:23:10.927Z,96.09
2019-02-09T06:25:40.580Z,89.54
2019-02-09T06:28:10.188Z,83.40
2019-02-09T06:30:39.831Z,89.70
2019-02-09T06:33:09.579Z,89.39
2019-02-09T06:35:39.165Z,89.27
2019-02-09T06:38:08.832Z,92.00
2019-02-09T06:40:38.465Z,98.92
2019-02-09T06:43:08.076Z,99.23
2019-02-09T06:45:37.724Z,98.97
2019-02-09T06:48:22.573Z,98.04
2019-02-09T06:50:52.287Z,100.00
2019-02-09T06:53:21.939Z,100.00
2019-02-09T06:55:51.695Z,100.00
2019-02-09T06:58:21.404Z,100.00
2019-02-09T07:00:51.100Z,100.00
2019-02-09T07:03:20.821Z,100.00
2019-02-09T07:05:50.492Z,90.86
2019-02-09T07:08:20.091Z,90.81
2019-02-09T07:10:49.800Z,87.40
2019-02-09T07:13:19.461Z,83.88
2019-02-09T07:15:49.139Z,83.83
2019-02-09T07:18:18.772Z,87.42
2019-02-09T07:20:48.667Z,86.72
2019-02-09T07:23:18.270Z,85.01
2019-02-09T07:25:47.899Z,82.47
2019-02-09T07:28:17.669Z,81.34
2019-02-09T07:30:47.321Z,82.67
2019-02-09T07:33:16.932Z,87.19
2019-02-09T07:35:46.580Z,90.96
2019-02-09T07:38:16.175Z,92.59
2019-02-09T07:40:45.774Z,87.64
2019-02-09T07:43:15.431Z,84.76
2019-02-09T07:45:45.096Z,82.83
2019-02-09T07:48:14.739Z,84.28
2019-02-09T07:50:44.414Z,83.28
2019-02-09T07:53:14.036Z,83.35
2019-02-09T07:55:43.664Z,76.54
2019-02-09T07:58:13.321Z,80.53
2019-02-09T08:00:43.063Z,82.52
2019-02-09T08:03:12.834Z,85.35
2019-02-09T08:05:42.544Z,87.41
2019-02-09T08:08:12.172Z,83.62
2019-02-09T08:10:41.786Z,85.03
2019-02-09T08:13:11.497Z,81.95
2019-02-09T08:15:41.227Z,80.39
2019-02-09T08:18:11.036Z,81.82
2019-02-09T08:20:40.825Z,80.22
2019-02-09T08:23:10.512Z,83.83
2019-02-09T08:25:40.566Z,82.20
2019-02-09T08:28:10.980Z,84.42
2019-02-09T08:30:42.849Z,81.01
2019-02-09T08:33:12.621Z,80.57
2019-02-09T08:35:42.524Z,83.27
2019-02-09T08:38:13.745Z,86.04
2019-02-09T08:40:43.563Z,84.16
2019-02-09T08:43:13.312Z,86.08
2019-02-09T08:45:42.892Z,90.43
2019-02-09T08:48:12.696Z,79.96
2019-02-09T08:50:45.680Z,78.76
2019-02-09T08:53:15.320Z,79.56
2019-02-09T08:55:45.019Z,74.26
2019-02-09T08:58:14.698Z,78.81
2019-02-09T09:00:44.387Z,86.02
2019-02-09T09:03:14.149Z,82.50
2019-02-09T09:05:44.073Z,82.96
2019-02-09T09:08:13.736Z,81.44
2019-02-09T09:10:43.548Z,80.30
2019-02-09T09:13:13.258Z,83.93
2019-02-09T09:15:48.249Z,82.82
2019-02-09T09:18:18.020Z,81.35
2019-02-09T09:20:53.105Z,77.82
2019-02-09T09:23:22.856Z,81.61
2019-02-09T09:25:52.503Z,76.60
2019-02-09T09:28:22.123Z,73.05
2019-02-09T09:30:51.808Z,72.21
2019-02-09T09:33:21.491Z,74.85
2019-02-09T09:35:51.223Z,74.47
2019-02-09T09:38:20.991Z,72.41
2019-02-09T09:40:50.625Z,70.62
2019-02-09T09:43:20.208Z,71.17
2019-02-09T09:45:49.973Z,74.63
2019-02-09T09:48:19.953Z,74.87
2019-02-09T09:50:49.567Z,73.03
2019-02-09T09:53:19.357Z,72.44
2019-02-09T09:55:48.971Z,70.05
2019-02-09T09:58:18.802Z,69.28
2019-02-09T10:00:48.662Z,74.74
2019-02-09T10:03:18.329Z,68.98
2019-02-09T10:05:47.985Z,67.78
2019-02-09T10:08:17.654Z,67.31
2019-02-09T10:10:47.422Z,64.50
2019-02-09T10:13:17.032Z,63.10
2019-02-09T10:15:46.791Z,60.46
2019-02-09T10:18:16.422Z,59.59
2019-02-09T10:20:46.073Z,63.25
2019-02-09T10:23:15.711Z,61.95
2019-02-09T10:25:45.310Z,63.97
2019-02-09T10:28:15.005Z,62.63
2019-02-09T10:30:44.671Z,64.31
2019-02-09T10:33:14.310Z,59.08
2019-02-09T10:35:43.900Z,62.98
2019-02-09T10:38:13.737Z,61.40
2019-02-09T10:40:43.360Z,60.57
2019-02-09T10:43:12.275Z,59.08
2019-02-09T10:45:42.070Z,56.47
2019-02-09T10:48:11.927Z,57.00
2019-02-09T10:50:43.972Z,58.65
2019-02-09T10:53:13.635Z,56.48
2019-02-09T10:55:43.617Z,59.22
2019-02-09T10:58:13.452Z,55.56
2019-02-09T11:00:49.185Z,56.95
2019-02-09T11:03:19.028Z,58.02
2019-02-09T11:05:48.701Z,59.42
2019-02-09T11:08:18.545Z,59.09
2019-02-09T11:10:48.385Z,59.98
2019-02-09T11:13:18.636Z,62.36
2019-02-09T11:15:48.337Z,59.68
2019-02-09T11:18:17.925Z,58.14
2019-02-09T11:20:47.527Z,60.70
2019-02-09T11:23:17.207Z,61.38
2019-02-09T11:25:46.809Z,62.72
2019-02-09T11:28:16.458Z,60.78
2019-02-09T11:30:46.183Z,59.54
2019-02-09T11:33:15.777Z,56.97
2019-02-09T11:35:45.421Z,59.40
2019-02-09T11:38:15.071Z,56.10
2019-02-09T11:40:44.688Z,56.40
2019-02-09T11:43:14.338Z,58.14
2019-02-09T11:45:44.053Z,57.27
2019-02-09T11:48:13.670Z,54.63
2019-02-09T11:50:43.304Z,53.56
2019-02-09T11:53:13.264Z,54.48
2019-02-09T11:55:42.895Z,53.25
2019-02-09T11:58:12.480Z,56.12
2019-02-09T12:00:53.205Z,53.79
2019-02-09T12:03:22.797Z,56.01
2019-02-09T12:05:52.406Z,56.57
2019-02-09T12:08:22.046Z,54.85
2019-02-09T12:10:51.676Z,55.46
2019-02-09T12:13:21.428Z,57.11
2019-02-09T12:15:51.154Z,55.02
2019-02-09T12:18:20.785Z,54.88
2019-02-09T12:20:50.399Z,51.88
2019-02-09T12:23:20.120Z,52.41
2019-02-09T12:25:49.739Z,49.57
2019-02-09T12:28:19.315Z,52.19
2019-02-09T12:30:48.989Z,53.35
2019-02-09T12:33:23.031Z,51.20
2019-02-09T12:35:49.940Z,51.85
2019-02-09T12:38:19.590Z,54.09
2019-02-09T12:40:49.191Z,53.17
2019-02-09T12:43:18.855Z,52.68
2019-02-09T12:45:48.622Z,52.59
2019-02-09T12:48:18.211Z,52.92
2019-02-09T12:50:47.859Z,51.19
2019-02-09T12:53:19.361Z,49.77
2019-02-09T12:55:49.082Z,50.93
2019-02-09T12:58:18.716Z,50.83
2019-02-09T13:00:48.401Z,51.59
2019-02-09T13:03:20.924Z,50.56
2019-02-09T13:05:50.634Z,52.12
2019-02-09T13:08:20.408Z,52.93
2019-02-09T13:10:50.037Z,54.01
2019-02-09T13:13:19.784Z,53.53
2019-02-09T13:15:49.473Z,52.11
2019-02-09T13:18:20.315Z,52.20
2019-02-09T13:20:50.077Z,52.19
2019-02-09T13:23:19.977Z,52.28
2019-02-09T13:25:49.694Z,53.61
2019-02-09T13:28:19.359Z,51.82
2019-02-09T13:30:49.025Z,51.33
2019-02-09T13:33:18.637Z,52.23
2019-02-09T13:35:48.233Z,53.05
2019-02-09T13:38:17.908Z,51.50
2019-02-09T13:40:47.514Z,53.01
2019-02-09T13:43:17.114Z,53.77
2019-02-09T13:45:49.412Z,52.54
2019-02-09T13:48:19.059Z,51.47
2019-02-09T13:50:48.755Z,52.73
2019-02-09T13:53:18.591Z,55.65
2019-02-09T13:55:48.208Z,55.13
2019-02-09T13:58:17.842Z,54.22
2019-02-09T14:00:47.483Z,53.19
2019-02-09T14:03:17.131Z,53.88
2019-02-09T14:05:46.737Z,58.91
2019-02-09T14:08:16.401Z,57.05
2019-02-09T14:10:45.990Z,54.86
2019-02-09T14:13:15.611Z,53.05
2019-02-09T14:15:45.263Z,54.12
2019-02-09T14:18:14.882Z,55.63
2019-02-09T14:20:44.470Z,57.91
2019-02-09T14:23:14.165Z,56.30
2019-02-09T14:25:43.944Z,56.03
2019-02-09T14:28:13.658Z,54.82
2019-02-09T14:30:43.733Z,56.10
2019-02-09T14:33:13.697Z,57.49
2019-02-09T14:35:43.623Z,58.36
2019-02-09T14:38:13.351Z,59.76
2019-02-09T14:40:43.062Z,57.15
2019-02-09T14:43:12.846Z,57.07
2019-02-09T14:45:43.973Z,55.60
2019-02-09T14:48:13.806Z,56.61
2019-02-09T14:50:43.580Z,58.85
2019-02-09T14:53:13.324Z,57.36
2019-02-09T14:55:43.071Z,56.15
2019-02-09T14:58:14.297Z,57.55
2019-02-09T15:00:49.285Z,58.36
2019-02-09T15:03:25.924Z,57.20
2019-02-09T15:05:50.243Z,58.62
2019-02-09T15:08:20.068Z,56.03
2019-02-09T15:10:49.698Z,54.02
2019-02-09T15:13:19.309Z,55.24
2019-02-09T15:16:15.821Z,55.80
2019-02-09T15:18:45.431Z,55.96
2019-02-09T15:21:15.170Z,59.02
2019-02-09T15:23:44.875Z,60.61
2019-02-09T15:26:14.513Z,61.55
2019-02-09T15:28:44.122Z,88.06
2019-02-09T15:31:13.800Z,72.06
2019-02-09T15:33:43.418Z,75.12
2019-02-09T15:36:13.011Z,76.52
2019-02-09T15:38:42.660Z,70.76
2019-02-09T15:41:12.320Z,70.64
2019-02-09T15:43:41.909Z,70.91
2019-02-09T15:46:11.564Z,69.63
2019-02-09T15:48:41.186Z,69.57
2019-02-09T15:51:10.839Z,72.21
2019-02-09T15:53:40.490Z,74.90
2019-02-09T15:56:10.200Z,76.70
2019-02-09T15:58:39.805Z,74.07
2019-02-09T16:01:09.504Z,71.92
2019-02-09T16:03:39.135Z,71.61
2019-02-09T16:06:08.737Z,70.96
2019-02-09T16:08:38.385Z,71.07
2019-02-09T16:11:08.037Z,72.86
2019-02-09T16:13:37.635Z,72.22
2019-02-09T16:16:07.530Z,73.31
2019-02-09T16:18:37.140Z,73.41
2019-02-09T16:21:06.810Z,76.52
2019-02-09T16:23:36.546Z,74.48
2019-02-09T16:26:06.540Z,75.80
2019-02-09T16:28:36.183Z,76.45
2019-02-09T16:31:06.009Z,77.04
2019-02-09T16:33:35.612Z,76.75
2019-02-09T16:36:05.473Z,77.60
2019-02-09T16:38:35.216Z,77.54
2019-02-09T16:41:05.146Z,78.45
2019-02-09T16:43:34.781Z,78.71
2019-02-09T16:46:04.788Z,77.53
2019-02-09T16:48:34.426Z,78.46
2019-02-09T16:51:04.333Z,79.63
2019-02-09T16:53:33.987Z,80.31
2019-02-09T16:56:03.595Z,81.40
2019-02-09T16:58:33.244Z,80.57
2019-02-09T17:01:02.903Z,80.14
2019-02-09T17:03:32.504Z,79.43
2019-02-09T17:06:02.116Z,80.87
2019-02-09T17:08:31.767Z,81.64
2019-02-09T17:11:01.457Z,81.25
2019-02-09T17:13:31.065Z,80.40
2019-02-09T17:16:00.725Z,81.44
2019-02-09T17:18:30.385Z,79.41
2019-02-09T17:20:59.973Z,80.33
2019-02-09T17:23:29.639Z,79.98
2019-02-09T17:25:59.315Z,81.44
2019-02-09T17:28:28.927Z,82.18
2019-02-09T17:30:58.607Z,81.89
2019-02-09T17:33:28.218Z,80.94
2019-02-09T17:35:57.881Z,80.67
2019-02-09T17:38:27.607Z,81.93
2019-02-09T17:40:57.231Z,80.30
2019-02-09T17:43:26.862Z,79.89
2019-02-09T17:46:00.340Z,78.70
2019-02-09T17:48:29.940Z,80.05
2019-02-09T17:50:59.576Z,80.52
2019-02-09T17:53:29.341Z,80.13
2019-02-09T17:55:58.958Z,79.65
2019-02-09T17:58:28.627Z,78.96
2019-02-09T18:01:14.899Z,80.05
2019-02-09T18:03:44.620Z,79.95
2019-02-09T18:06:14.348Z,82.79
2019-02-09T18:08:44.152Z,83.60
2019-02-09T18:11:13.813Z,85.17
2019-02-09T18:13:43.443Z,84.13
2019-02-09T18:16:13.138Z,85.24
2019-02-09T18:18:43.650Z,85.97
2019-02-09T18:21:13.451Z,85.62
2019-02-09T18:23:43.109Z,86.81
2019-02-09T18:26:12.747Z,86.56
2019-02-09T18:28:42.387Z,86.96
2019-02-09T18:31:12.046Z,88.11
2019-02-09T18:33:41.653Z,88.71
2019-02-09T18:36:11.440Z,88.86
2019-02-09T18:38:41.278Z,88.97
2019-02-09T18:41:10.979Z,88.98
2019-02-09T18:43:40.572Z,90.41
2019-02-09T18:46:10.463Z,90.59
2019-02-09T18:48:40.095Z,90.33
2019-02-09T18:51:09.705Z,90.06
2019-02-09T18:53:39.373Z,90.24
2019-02-09T18:56:09.121Z,89.95
2019-02-09T18:58:38.739Z,89.85
2019-02-09T19:01:08.544Z,88.94
2019-02-09T19:03:38.173Z,88.23
2019-02-09T19:06:07.899Z,88.15
2019-02-09T19:08:37.678Z,89.49
2019-02-09T19:11:07.293Z,86.81
2019-02-09T19:13:36.894Z,86.33
2019-02-09T19:16:07.588Z,85.14
2019-02-09T19:18:37.322Z,84.53
2019-02-09T19:21:11.466Z,86.15
2019-02-09T19:23:41.231Z,86.08
2019-02-09T19:26:11.106Z,85.53
2019-02-09T19:28:40.802Z,85.72
2019-02-09T19:31:11.521Z,87.18
2019-02-09T19:33:41.108Z,88.32
2019-02-09T19:36:10.911Z,87.72
2019-02-09T19:38:40.599Z,87.63
2019-02-09T19:41:10.319Z,87.35
2019-02-09T19:43:40.104Z,85.72
2019-02-09T19:46:10.207Z,87.59
2019-02-09T19:48:39.868Z,87.80
2019-02-09T19:51:09.512Z,87.98
2019-02-09T19:53:39.123Z,88.90
2019-02-09T19:56:08.752Z,88.96
2019-02-09T19:58:38.405Z,88.94
2019-02-09T20:01:08.171Z,90.09
2019-02-09T20:03:37.797Z,90.45
2019-02-09T20:06:07.990Z,89.47
2019-02-09T20:08:37.632Z,90.10
2019-02-09T20:11:07.278Z,90.31
2019-02-09T20:13:36.948Z,89.72
2019-02-09T20:16:06.587Z,91.23
2019-02-09T20:18:36.247Z,89.65
2019-02-09T20:21:05.946Z,88.92
2019-02-09T20:23:35.535Z,90.46
2019-02-09T20:26:05.256Z,90.76
2019-02-09T20:28:34.894Z,88.69
2019-02-09T20:31:04.644Z,89.92
2019-02-09T20:33:34.225Z,90.93
2019-02-09T20:36:03.959Z,90.24
2019-02-09T20:38:33.568Z,90.78
2019-02-09T20:41:06.033Z,90.85
2019-02-09T20:43:35.667Z,90.04
2019-02-09T20:46:05.471Z,90.95
2019-02-09T20:48:35.156Z,91.20
2019-02-09T20:51:04.947Z,90.85
2019-02-09T20:53:34.544Z,91.04
2019-02-09T20:56:04.260Z,90.72
2019-02-09T20:58:33.925Z,91.60
2019-02-09T21:01:03.537Z,91.34
2019-02-09T21:03:33.210Z,93.44
2019-02-09T21:06:02.869Z,92.55
2019-02-09T21:08:32.488Z,92.46
2019-02-09T21:11:02.072Z,91.59
2019-02-09T21:13:31.813Z,89.00
2019-02-09T21:16:02.930Z,89.46
2019-02-09T21:18:32.755Z,86.86
2019-02-09T21:21:02.414Z,86.74
2019-02-09T21:23:32.044Z,94.99
2019-02-09T21:26:01.684Z,98.72
2019-02-09T21:28:31.432Z,100.00
2019-02-09T21:31:01.106Z,100.00
2019-02-09T21:33:30.733Z,100.00
2019-02-09T21:36:00.397Z,100.00
2019-02-09T21:38:30.041Z,100.00
2019-02-09T21:40:59.648Z,100.00
2019-02-09T21:43:29.296Z,100.00
2019-02-09T21:45:58.922Z,100.00
2019-02-09T21:48:28.521Z,100.00
2019-02-09T21:50:58.203Z,100.00
2019-02-09T21:53:27.812Z,100.00
2019-02-09T21:55:57.565Z,100.00
2019-02-09T21:58:27.263Z,100.00
2019-02-09T22:00:56.940Z,100.00
2019-02-09T22:03:26.688Z,100.00
2019-02-09T22:05:56.398Z,100.00
2019-02-09T22:08:26.031Z,100.00
2019-02-09T22:10:55.631Z,100.00
2019-02-09T22:13:25.318Z,100.00
2019-02-09T22:15:54.982Z,100.00
2019-02-09T22:18:24.666Z,100.00
2019-02-09T22:20:54.342Z,100.00
2019-02-09T22:23:23.952Z,100.00
2019-02-09T22:25:53.593Z,100.00
2019-02-09T22:28:23.265Z,100.00
2019-02-09T22:30:52.970Z,100.00
2019-02-09T22:33:24.546Z,100.00
2019-02-09T22:35:59.873Z,100.00
2019-02-09T22:38:25.455Z,100.00
2019-02-09T22:40:55.072Z,100.00
2019-02-09T22:43:24.743Z,100.00
2019-02-09T22:45:54.381Z,100.00
2019-02-09T22:48:24.008Z,100.00
2019-02-09T22:50:53.706Z,100.00
2019-02-09T22:53:23.320Z,100.00
2019-02-09T22:55:53.011Z,100.00
2019-02-09T22:58:22.666Z,100.00
2019-02-09T23:01:34.937Z,100.00
2019-02-09T23:04:54.287Z,100.00
2019-02-09T23:07:29.709Z,100.00
2019-02-09T23:10:01.210Z,100.00
2019-02-09T23:12:30.811Z,100.00
2019-02-09T23:15:00.470Z,100.00
2019-02-09T23:17:30.254Z,100.00
2019-02-09T23:19:59.904Z,100.00
2019-02-09T23:22:29.542Z,100.00
2019-02-09T23:24:59.286Z,100.00
2019-02-09T23:27:28.906Z,100.00
2019-02-09T23:29:58.514Z,100.00
2019-02-09T23:32:28.160Z,100.00
2019-02-09T23:34:57.760Z,100.00
2019-02-09T23:37:27.367Z,100.00
2019-02-09T23:39:57.060Z,100.00
2019-02-09T23:42:26.707Z,100.00
2019-02-09T23:44:56.369Z,100.00
2019-02-09T23:47:26.068Z,100.00
2019-02-09T23:49:55.804Z,100.00
2019-02-09T23:52:25.467Z,100.00
2019-02-09T23:54:55.177Z,100.00
2019-02-09T23:57:24.850Z,100.00
2019-02-09T23:59:54.427Z,100.00
